Time;durP1;ratioP1;P1;durP2;ratioP2;P2;SDS_P1;SDS_P2;PMS_P1;PMS_P2;Temp;Humidity;BMP_temperature;BMP_pressure;BME280_temperature;BME280_humidity;BME280_pressure;Samples;Min_cycle;Max_cycle;Signal;HPM_P1;HPM_P2
2022/10/15 00:00:36;;;;;;;1.33;0.90;;;14.80;98.80;;;;;;5027548;28;20195;-73
2022/10/15 00:03:02;;;;;;;2.00;1.00;;;14.80;98.80;;;;;;5028549;28;20741;-72
2022/10/15 00:05:28;;;;;;;1.27;0.87;;;14.90;98.80;;;;;;5026723;28;20976;-73
2022/10/15 00:07:53;;;;;;;0.90;0.80;;;14.90;98.80;;;;;;5023729;28;20432;-71
2022/10/15 00:10:19;;;;;;;1.70;1.00;;;14.90;98.80;;;;;;5028195;28;20192;-72
2022/10/15 00:12:45;;;;;;;1.43;0.83;;;14.90;98.70;;;;;;5030316;28;20178;-72
2022/10/15 00:15:11;;;;;;;2.27;1.00;;;14.80;98.70;;;;;;5030265;28;20512;-73
2022/10/15 00:17:37;;;;;;;2.53;1.07;;;14.90;98.90;;;;;;5023702;28;20194;-72
2022/10/15 00:20:05;;;;;;;2.97;1.27;;;14.90;98.90;;;;;;5029865;28;20429;-71
2022/10/15 00:22:31;;;;;;;1.43;0.90;;;14.90;98.90;;;;;;5032855;28;20461;-72
2022/10/15 00:24:56;;;;;;;1.30;1.00;;;14.90;98.80;;;;;;5032671;28;20555;-72
2022/10/15 00:27:22;;;;;;;2.30;0.70;;;14.90;98.80;;;;;;5025940;28;20205;-71
2022/10/15 00:29:47;;;;;;;1.27;0.80;;;14.90;98.80;;;;;;5028367;28;20193;-73
2022/10/15 00:32:13;;;;;;;1.93;0.90;;;14.90;98.80;;;;;;5027510;28;20196;-70
2022/10/15 00:34:39;;;;;;;1.40;0.77;;;15.00;98.80;;;;;;5031931;28;20200;-71
2022/10/15 00:37:05;;;;;;;1.80;0.77;;;15.00;98.70;;;;;;5027037;28;20705;-71
2022/10/15 00:39:30;;;;;;;1.90;0.80;;;14.90;98.80;;;;;;5030570;28;20451;-70
2022/10/15 00:41:56;;;;;;;1.20;0.77;;;15.00;98.80;;;;;;5031950;28;20205;-71
2022/10/15 00:44:25;;;;;;;2.07;0.90;;;15.00;98.90;;;;;;5032585;28;20187;-70
2022/10/15 00:47:05;;;;;;;1.40;0.73;;;15.00;98.90;;;;;;5030304;28;20228;-71
2022/10/15 00:49:38;;;;;;;2.23;0.90;;;15.00;98.90;;;;;;5039609;28;20425;-71
2022/10/15 00:52:13;;;;;;;1.60;0.90;;;15.00;98.90;;;;;;5040375;28;20474;-70
2022/10/15 00:54:46;;;;;;;1.80;0.90;;;15.00;98.90;;;;;;5037622;28;20840;-70
2022/10/15 00:57:12;;;;;;;1.37;1.17;;;15.00;99.00;;;;;;5026980;28;20452;-71
2022/10/15 00:59:42;;;;;;;3.80;0.90;;;15.00;99.10;;;;;;5031393;28;20428;-71
2022/10/15 01:02:08;;;;;;;1.03;0.80;;;15.00;99.10;;;;;;5031270;28;20454;-72
2022/10/15 01:04:35;;;;;;;1.30;0.87;;;15.00;99.10;;;;;;5029514;28;20451;-70
2022/10/15 01:07:01;;;;;;;1.47;0.77;;;15.00;99.10;;;;;;5030298;28;20452;-71
2022/10/15 01:09:27;;;;;;;0.77;0.63;;;15.00;99.10;;;;;;5030580;28;20412;-71
2022/10/15 01:11:54;;;;;;;1.23;0.70;;;15.00;99.10;;;;;;5028332;28;20190;-71
2022/10/15 01:14:43;;;;;;;5.23;1.27;;;15.00;99.10;;;;;;5030135;28;20452;-70
2022/10/15 01:17:30;;;;;;;1.33;0.93;;;15.00;99.10;;;;;;5029946;28;20451;-71
2022/10/15 01:20:33;;;;;;;2.07;1.00;;;15.00;99.10;;;;;;5027767;28;20424;-69
2022/10/15 01:23:37;;;;;;;1.30;0.80;;;15.10;99.10;;;;;;4985775;28;21032;-72
2022/10/15 01:26:52;;;;;;;1.13;0.60;;;15.10;99.10;;;;;;5018622;28;20476;-72
2022/10/15 01:29:40;;;;;;;1.37;0.60;;;15.10;99.10;;;;;;5023571;28;20539;-71
2022/10/15 01:32:21;;;;;;;1.10;0.80;;;15.10;99.10;;;;;;5032603;28;20465;-71
2022/10/15 01:35:02;;;;;;;1.47;0.80;;;15.10;99.20;;;;;;5025913;28;20424;-71
2022/10/15 01:37:40;;;;;;;1.77;0.70;;;15.10;99.30;;;;;;5026518;28;20462;-70
2022/10/15 01:40:20;;;;;;;0.67;0.60;;;15.10;99.40;;;;;;5027459;28;20515;-73
2022/10/15 01:43:21;;;;;;;1.20;0.80;;;15.10;99.50;;;;;;5034871;28;20526;-70
2022/10/15 01:45:55;;;;;;;1.60;0.70;;;15.10;99.50;;;;;;5013122;28;20588;-71
2022/10/15 01:48:23;;;;;;;2.80;0.70;;;15.00;99.60;;;;;;5008937;28;20444;-72
2022/10/15 01:50:54;;;;;;;1.57;1.00;;;15.10;99.70;;;;;;4992657;28;20425;-69
2022/10/15 01:53:25;;;;;;;1.50;0.70;;;15.10;99.70;;;;;;5016053;28;20924;-72
2022/10/15 01:56:03;;;;;;;1.40;0.90;;;15.10;99.80;;;;;;5013497;28;20582;-71
2022/10/15 01:58:30;;;;;;;0.97;0.87;;;15.10;99.80;;;;;;4994875;28;21079;-73
2022/10/15 02:00:57;;;;;;;4.00;0.93;;;15.10;99.90;;;;;;5006593;28;20425;-71
2022/10/15 02:03:23;;;;;;;2.40;0.90;;;15.10;99.90;;;;;;5010717;28;20416;-70
2022/10/15 02:06:02;;;;;;;1.13;0.80;;;15.10;99.90;;;;;;4991778;28;20538;-70
2022/10/15 02:08:56;;;;;;;1.30;0.70;;;15.10;99.90;;;;;;5010393;28;20190;-71
2022/10/15 02:11:22;;;;;;;1.13;0.80;;;15.10;99.90;;;;;;5006184;28;20433;-73
2022/10/15 02:13:48;;;;;;;2.90;0.80;;;15.10;99.90;;;;;;5012782;28;20419;-71
2022/10/15 02:16:42;;;;;;;2.90;0.80;;;15.10;99.90;;;;;;5011888;28;20221;-71
2022/10/15 02:19:08;;;;;;;0.90;0.70;;;15.10;99.90;;;;;;5008860;28;20265;-71
2022/10/15 02:21:55;;;;;;;1.07;0.77;;;15.20;99.90;;;;;;5019668;28;20559;-72
2022/10/15 02:24:26;;;;;;;0.87;0.80;;;15.10;99.90;;;;;;5031631;28;20198;-71
2022/10/15 02:26:56;;;;;;;1.20;0.80;;;15.10;99.90;;;;;;5025536;28;20910;-71
2022/10/15 02:29:26;;;;;;;2.60;0.90;;;15.10;99.90;;;;;;5032773;28;20416;-71
2022/10/15 02:31:55;;;;;;;0.70;0.63;;;15.10;99.90;;;;;;5033588;28;20448;-70
2022/10/15 02:34:25;;;;;;;1.83;0.80;;;15.20;99.90;;;;;;5034140;28;20421;-71
2022/10/15 02:36:52;;;;;;;1.17;0.83;;;15.20;99.90;;;;;;5031474;28;20452;-70
2022/10/15 02:39:23;;;;;;;1.57;0.80;;;15.20;99.90;;;;;;5033719;28;20480;-73
2022/10/15 02:41:49;;;;;;;3.17;1.00;;;15.20;99.90;;;;;;5029391;28;21378;-71
2022/10/15 02:44:15;;;;;;;1.00;0.70;;;15.20;99.90;;;;;;5033376;28;20465;-70
2022/10/15 02:46:41;;;;;;;0.77;0.73;;;15.30;99.90;;;;;;5023937;28;20847;-71
2022/10/15 02:49:06;;;;;;;0.70;0.60;;;15.30;99.90;;;;;;5032899;28;20499;-70
2022/10/15 02:51:34;;;;;;;1.10;0.60;;;15.30;99.90;;;;;;5033281;28;20181;-70
2022/10/15 02:54:02;;;;;;;1.57;0.67;;;15.30;99.90;;;;;;5034560;28;20177;-73
2022/10/15 02:56:28;;;;;;;1.73;0.63;;;15.30;99.90;;;;;;5033736;28;20525;-71
2022/10/15 02:58:54;;;;;;;1.50;0.80;;;15.40;99.90;;;;;;5033215;28;20873;-72
2022/10/15 03:01:19;;;;;;;1.13;0.70;;;15.40;99.90;;;;;;5034195;28;20422;-72
2022/10/15 03:03:45;;;;;;;3.20;0.80;;;15.40;99.90;;;;;;5034507;28;20677;-73
2022/10/15 03:06:10;;;;;;;0.83;0.67;;;15.40;99.90;;;;;;5031479;28;20209;-71
2022/10/15 03:08:36;;;;;;;1.70;0.77;;;15.40;99.90;;;;;;5035082;28;20196;-72
2022/10/15 03:11:02;;;;;;;4.53;0.70;;;15.50;99.90;;;;;;5035095;28;20204;-70
2022/10/15 03:13:28;;;;;;;0.80;0.60;;;15.50;99.90;;;;;;5034429;28;20235;-69
2022/10/15 03:15:54;;;;;;;1.77;0.60;;;15.50;99.90;;;;;;5033459;28;20584;-71
2022/10/15 03:18:20;;;;;;;1.77;0.60;;;15.50;99.90;;;;;;5041744;28;20499;-71
2022/10/15 03:20:53;;;;;;;0.90;0.90;;;15.50;99.90;;;;;;5040928;28;20435;-71
2022/10/15 03:23:18;;;;;;;2.30;0.60;;;15.50;99.90;;;;;;5041818;28;20432;-71
2022/10/15 03:25:44;;;;;;;3.20;0.90;;;15.60;99.90;;;;;;5041062;28;20481;-72
2022/10/15 03:28:09;;;;;;;1.57;0.90;;;15.60;99.80;;;;;;5040123;28;20177;-71
2022/10/15 03:30:35;;;;;;;4.97;1.10;;;15.60;99.70;;;;;;5038055;28;20207;-70
2022/10/15 03:33:01;;;;;;;4.10;1.13;;;15.60;99.70;;;;;;5032785;28;20186;-70
2022/10/15 03:35:26;;;;;;;1.53;0.70;;;15.60;99.70;;;;;;5027821;28;20261;-71
2022/10/15 03:37:52;;;;;;;1.00;0.50;;;15.60;99.70;;;;;;5026351;28;20253;-72
2022/10/15 03:40:17;;;;;;;0.90;0.70;;;15.60;99.80;;;;;;5031582;28;20275;-71
2022/10/15 03:42:43;;;;;;;1.00;0.77;;;15.70;99.70;;;;;;5033425;28;20202;-71
2022/10/15 03:45:09;;;;;;;0.77;0.57;;;15.70;99.60;;;;;;5031048;28;20286;-72
2022/10/15 03:47:35;;;;;;;0.83;0.60;;;15.80;99.50;;;;;;5024864;28;20201;-71
2022/10/15 03:50:00;;;;;;;1.77;0.63;;;15.70;99.50;;;;;;5029137;28;20435;-72
2022/10/15 03:52:26;;;;;;;0.87;0.70;;;15.70;99.50;;;;;;5029620;28;20670;-71
2022/10/15 03:54:51;;;;;;;0.60;0.50;;;15.70;99.50;;;;;;5028328;28;20239;-71
2022/10/15 03:57:17;;;;;;;0.90;0.70;;;15.70;99.60;;;;;;5028191;28;20914;-72
2022/10/15 03:59:42;;;;;;;1.00;0.60;;;15.80;99.60;;;;;;5028133;28;21520;-73
2022/10/15 04:02:08;;;;;;;0.80;0.70;;;15.80;99.50;;;;;;5027002;28;20188;-71
2022/10/15 04:04:33;;;;;;;0.80;0.60;;;15.80;99.50;;;;;;5030243;28;20261;-69
2022/10/15 04:06:59;;;;;;;1.80;0.70;;;15.80;99.40;;;;;;5027725;28;20210;-71
2022/10/15 04:09:25;;;;;;;0.80;0.60;;;15.80;99.40;;;;;;5031135;28;20185;-70
2022/10/15 04:11:50;;;;;;;0.70;0.50;;;15.90;99.40;;;;;;5029963;28;20183;-71
2022/10/15 04:14:16;;;;;;;0.80;0.60;;;15.80;99.40;;;;;;5029509;28;20548;-69
2022/10/15 04:16:41;;;;;;;0.67;0.60;;;15.90;99.30;;;;;;5028228;28;20216;-71
2022/10/15 04:19:07;;;;;;;1.40;0.90;;;15.90;99.30;;;;;;5027343;28;20258;-70
2022/10/15 04:21:32;;;;;;;0.93;0.73;;;15.90;99.20;;;;;;5031935;28;20204;-72
2022/10/15 04:23:58;;;;;;;0.53;0.50;;;15.90;99.20;;;;;;5027355;28;20321;-70
2022/10/15 04:26:23;;;;;;;0.90;0.63;;;15.90;99.10;;;;;;5031151;28;20226;-72
2022/10/15 04:28:49;;;;;;;2.00;0.80;;;15.90;99.10;;;;;;5034619;28;20190;-70
2022/10/15 04:31:15;;;;;;;0.67;0.60;;;15.80;99.10;;;;;;5032417;28;20189;-71
2022/10/15 04:33:40;;;;;;;2.60;0.80;;;15.90;99.20;;;;;;5032197;28;20238;-72
2022/10/15 04:36:10;;;;;;;0.73;0.60;;;15.90;99.20;;;;;;5029353;28;20296;-71
2022/10/15 04:38:36;;;;;;;1.10;0.80;;;15.90;99.10;;;;;;5030737;28;20232;-69
2022/10/15 04:41:05;;;;;;;1.00;0.60;;;15.90;99.00;;;;;;5033561;28;20829;-70
2022/10/15 04:43:31;;;;;;;0.60;0.50;;;15.90;99.00;;;;;;5029011;28;20209;-70
2022/10/15 04:46:02;;;;;;;1.83;0.80;;;15.90;98.90;;;;;;5036059;28;20474;-72
2022/10/15 04:48:29;;;;;;;0.80;0.70;;;15.90;98.90;;;;;;5034200;28;20451;-72
2022/10/15 04:50:55;;;;;;;0.87;0.60;;;15.90;98.90;;;;;;5039245;28;20468;-70
2022/10/15 04:53:21;;;;;;;2.33;0.60;;;16.00;98.70;;;;;;5032725;28;20424;-70
2022/10/15 04:55:47;;;;;;;0.60;0.60;;;16.00;98.50;;;;;;5027300;28;20328;-69
2022/10/15 04:58:12;;;;;;;1.13;0.73;;;16.00;98.40;;;;;;5027246;28;20437;-70
2022/10/15 05:00:38;;;;;;;0.70;0.60;;;16.00;98.30;;;;;;5032768;28;20942;-70
2022/10/15 05:03:05;;;;;;;0.80;0.60;;;16.00;98.00;;;;;;5028658;28;20570;-70
2022/10/15 05:05:31;;;;;;;1.57;0.63;;;16.10;97.70;;;;;;5027289;28;20485;-70
2022/10/15 05:08:01;;;;;;;0.70;0.67;;;16.10;97.60;;;;;;5028036;28;20423;-70
2022/10/15 05:10:26;;;;;;;2.33;0.80;;;16.10;97.50;;;;;;5028090;28;20443;-69
2022/10/15 05:12:52;;;;;;;0.80;0.60;;;16.10;97.40;;;;;;5028715;28;20520;-70
2022/10/15 05:15:18;;;;;;;0.90;0.70;;;16.10;97.40;;;;;;5023488;28;20191;-70
2022/10/15 05:17:43;;;;;;;1.67;1.00;;;16.10;97.40;;;;;;5026648;28;20196;-72
2022/10/15 05:20:09;;;;;;;1.23;0.80;;;16.10;97.30;;;;;;5032915;28;20606;-69
2022/10/15 05:22:35;;;;;;;1.67;0.70;;;16.10;97.20;;;;;;5028804;28;20537;-71
2022/10/15 05:25:00;;;;;;;1.97;0.80;;;16.10;97.20;;;;;;5034032;28;21017;-71
2022/10/15 05:27:26;;;;;;;1.80;0.70;;;16.10;97.10;;;;;;5030658;28;20549;-72
2022/10/15 05:29:51;;;;;;;2.10;1.10;;;16.10;97.10;;;;;;5036898;28;20212;-70
2022/10/15 05:32:17;;;;;;;0.80;0.80;;;16.10;97.10;;;;;;5032664;28;20550;-72
2022/10/15 05:34:43;;;;;;;1.00;0.73;;;16.10;97.00;;;;;;5035561;28;20223;-71
2022/10/15 05:37:08;;;;;;;2.67;0.80;;;16.10;97.10;;;;;;5033584;28;20200;-70
2022/10/15 05:39:34;;;;;;;0.90;0.80;;;16.20;97.00;;;;;;5028426;28;20182;-70
2022/10/15 05:41:59;;;;;;;1.07;0.90;;;16.10;96.80;;;;;;5037908;28;20200;-72
2022/10/15 05:44:25;;;;;;;1.47;0.83;;;16.20;96.80;;;;;;5030034;28;20185;-71
2022/10/15 05:46:50;;;;;;;0.80;0.70;;;16.20;96.70;;;;;;5035408;28;20312;-71
2022/10/15 05:49:18;;;;;;;0.70;0.60;;;16.20;96.70;;;;;;5031904;28;20199;-69
2022/10/15 05:51:43;;;;;;;1.10;0.90;;;16.20;96.70;;;;;;5036419;28;20214;-72
2022/10/15 05:54:09;;;;;;;1.63;0.93;;;16.10;96.70;;;;;;5033539;28;20421;-71
2022/10/15 05:56:34;;;;;;;1.57;0.90;;;16.10;96.70;;;;;;5032593;28;20319;-71
2022/10/15 05:59:00;;;;;;;1.10;1.00;;;16.00;96.70;;;;;;5025755;28;20212;-70
2022/10/15 06:01:25;;;;;;;7.33;1.27;;;16.00;96.90;;;;;;5033658;28;20197;-71
2022/10/15 06:03:51;;;;;;;2.10;1.10;;;16.00;96.70;;;;;;5027092;28;20188;-71
2022/10/15 06:06:18;;;;;;;1.83;1.00;;;16.00;96.50;;;;;;5029829;28;20243;-72
2022/10/15 06:08:44;;;;;;;4.20;1.17;;;16.00;96.20;;;;;;5030167;28;20193;-71
2022/10/15 06:11:09;;;;;;;1.50;1.20;;;16.10;95.90;;;;;;5028295;28;20419;-70
2022/10/15 06:13:40;;;;;;;4.97;1.30;;;16.10;95.80;;;;;;5026191;28;20440;-71
2022/10/15 06:16:07;;;;;;;1.30;0.80;;;16.10;95.70;;;;;;5025015;28;20205;-71
2022/10/15 06:18:32;;;;;;;1.53;1.00;;;16.10;95.70;;;;;;5031529;28;20439;-70
2022/10/15 06:20:58;;;;;;;1.30;0.90;;;16.10;95.50;;;;;;5031933;28;20429;-71
2022/10/15 06:23:23;;;;;;;0.70;0.70;;;16.00;95.50;;;;;;5029771;28;20280;-71
2022/10/15 06:25:49;;;;;;;1.90;1.00;;;16.10;95.40;;;;;;5025571;28;20209;-71
2022/10/15 06:28:15;;;;;;;1.83;1.00;;;16.10;95.30;;;;;;5028888;28;20202;-71
2022/10/15 06:30:42;;;;;;;1.70;0.80;;;16.10;95.10;;;;;;5028762;28;20435;-71
2022/10/15 06:33:07;;;;;;;2.60;1.10;;;16.10;95.10;;;;;;5030149;28;20200;-70
2022/10/15 06:35:34;;;;;;;1.53;0.80;;;16.10;95.00;;;;;;5024731;28;20517;-73
2022/10/15 06:38:01;;;;;;;1.10;1.10;;;16.00;95.20;;;;;;5032893;28;20188;-70
2022/10/15 06:40:27;;;;;;;1.10;1.00;;;16.00;95.30;;;;;;5029745;28;20418;-71
2022/10/15 06:42:52;;;;;;;1.20;0.90;;;16.00;95.40;;;;;;5027267;28;20794;-71
2022/10/15 06:45:18;;;;;;;2.20;1.00;;;16.00;95.40;;;;;;5027524;28;20225;-70
2022/10/15 06:47:43;;;;;;;3.73;1.00;;;15.90;95.50;;;;;;5026751;28;20196;-71
2022/10/15 06:50:09;;;;;;;2.63;1.10;;;15.90;95.50;;;;;;5028797;28;20560;-71
2022/10/15 06:52:35;;;;;;;1.10;0.90;;;15.90;95.50;;;;;;5031395;28;20203;-71
2022/10/15 06:55:00;;;;;;;2.00;1.17;;;15.90;95.40;;;;;;5033618;28;20338;-71
2022/10/15 06:57:26;;;;;;;1.63;0.90;;;15.90;95.20;;;;;;5032620;28;20364;-71
2022/10/15 06:59:52;;;;;;;2.70;1.20;;;15.90;95.00;;;;;;5034881;28;20204;-71
2022/10/15 07:02:18;;;;;;;2.40;1.23;;;16.00;94.80;;;;;;5037283;28;20428;-71
2022/10/15 07:04:45;;;;;;;1.10;1.00;;;15.90;94.80;;;;;;5035856;28;20688;-72
2022/10/15 07:07:11;;;;;;;2.40;1.00;;;16.00;94.90;;;;;;5028962;28;20323;-72
2022/10/15 07:09:36;;;;;;;1.60;1.20;;;16.10;94.70;;;;;;5028421;28;20986;-71
2022/10/15 07:12:02;;;;;;;2.13;1.20;;;16.10;94.50;;;;;;5031159;28;20239;-72
2022/10/15 07:14:28;;;;;;;3.43;1.37;;;16.10;94.20;;;;;;5029478;28;20179;-72
2022/10/15 07:16:53;;;;;;;3.13;1.30;;;16.20;94.00;;;;;;5023125;28;20839;-70
2022/10/15 07:19:19;;;;;;;1.97;1.17;;;16.20;93.60;;;;;;5029628;28;20214;-71
2022/10/15 07:21:45;;;;;;;1.83;1.10;;;16.20;93.50;;;;;;5029221;28;20220;-72
2022/10/15 07:24:10;;;;;;;2.27;1.40;;;16.20;93.60;;;;;;5026532;28;20181;-70
2022/10/15 07:26:36;;;;;;;2.10;1.50;;;16.20;93.70;;;;;;5028664;28;20706;-70
2022/10/15 07:29:03;;;;;;;1.83;1.40;;;16.30;93.90;;;;;;5027607;28;20197;-70
2022/10/15 07:31:28;;;;;;;2.30;1.13;;;16.40;94.00;;;;;;5027767;28;20270;-72
2022/10/15 07:33:54;;;;;;;2.40;1.53;;;16.50;94.10;;;;;;5026431;28;20472;-71
2022/10/15 07:36:19;;;;;;;2.03;1.30;;;16.60;94.10;;;;;;5030447;28;20276;-71
2022/10/15 07:38:45;;;;;;;2.27;1.60;;;16.70;93.90;;;;;;5028211;28;20196;-74
2022/10/15 07:41:11;;;;;;;2.70;1.50;;;16.80;93.40;;;;;;5028851;28;20207;-74
2022/10/15 07:43:37;;;;;;;2.17;1.70;;;16.90;93.30;;;;;;5026137;28;20434;-70
2022/10/15 07:46:03;;;;;;;5.50;1.50;;;17.00;93.10;;;;;;5024793;28;20244;-72
2022/10/15 07:48:29;;;;;;;3.43;1.90;;;17.00;93.00;;;;;;5030184;28;20436;-74
2022/10/15 07:51:00;;;;;;;3.50;1.73;;;17.00;92.60;;;;;;5025419;28;20431;-72
2022/10/15 07:53:26;;;;;;;3.67;2.23;;;16.80;92.60;;;;;;5027546;28;20445;-72
2022/10/15 07:55:52;;;;;;;2.57;1.53;;;16.70;92.80;;;;;;5021497;28;20475;-72
2022/10/15 07:58:18;;;;;;;1.90;1.40;;;16.60;93.10;;;;;;5026913;28;20439;-72
2022/10/15 08:00:44;;;;;;;2.77;1.40;;;16.60;93.40;;;;;;5024478;28;20439;-71
2022/10/15 08:03:09;;;;;;;2.60;1.73;;;16.50;93.60;;;;;;5029143;28;20378;-71
2022/10/15 08:05:35;;;;;;;3.90;1.70;;;16.50;93.80;;;;;;5027768;28;20515;-73
2022/10/15 08:08:01;;;;;;;5.73;2.10;;;16.40;94.00;;;;;;5029765;28;20192;-71
2022/10/15 08:10:27;;;;;;;4.33;1.80;;;16.40;94.40;;;;;;5029785;28;20641;-73
2022/10/15 08:12:52;;;;;;;4.07;1.43;;;16.40;94.90;;;;;;5028426;28;20183;-73
2022/10/15 08:15:18;;;;;;;1.70;1.30;;;16.20;95.10;;;;;;5027732;28;20189;-72
2022/10/15 08:17:44;;;;;;;3.40;2.13;;;16.20;95.40;;;;;;5027668;28;20284;-72
2022/10/15 08:20:10;;;;;;;5.63;1.80;;;16.20;95.50;;;;;;5027247;28;20185;-72
2022/10/15 08:22:36;;;;;;;4.37;1.97;;;16.20;95.80;;;;;;5024655;28;20214;-73
2022/10/15 08:25:02;;;;;;;3.50;1.83;;;16.20;95.90;;;;;;5029627;28;20475;-73
2022/10/15 08:27:28;;;;;;;2.73;1.83;;;16.20;96.00;;;;;;5023490;28;20244;-72
2022/10/15 08:29:53;;;;;;;3.30;2.13;;;16.30;96.00;;;;;;5034451;28;20458;-73
2022/10/15 08:32:19;;;;;;;2.80;1.40;;;16.40;96.00;;;;;;5034498;28;20181;-73
2022/10/15 08:34:45;;;;;;;2.97;1.60;;;16.50;95.80;;;;;;5037196;28;20790;-71
2022/10/15 08:37:10;;;;;;;2.87;1.47;;;16.60;95.50;;;;;;5026634;28;20219;-72
2022/10/15 08:39:36;;;;;;;3.87;1.63;;;16.70;95.40;;;;;;5029353;28;20438;-73
2022/10/15 08:42:05;;;;;;;2.60;1.50;;;16.80;95.10;;;;;;5030201;28;20200;-72
2022/10/15 08:44:41;;;;;;;2.20;1.30;;;16.90;95.00;;;;;;5029539;28;20263;-73
2022/10/15 08:47:18;;;;;;;2.70;1.60;;;17.00;94.70;;;;;;5027686;28;20451;-73
2022/10/15 08:49:50;;;;;;;3.13;1.50;;;17.10;94.40;;;;;;5028662;28;20997;-75
2022/10/15 08:52:29;;;;;;;3.50;1.50;;;17.10;94.50;;;;;;5027957;28;20422;-72
2022/10/15 08:54:58;;;;;;;2.33;1.70;;;17.00;94.60;;;;;;5027159;28;20922;-71
2022/10/15 08:57:52;;;;;;;2.20;1.30;;;17.00;94.40;;;;;;5027141;28;20541;-72
2022/10/15 09:00:29;;;;;;;1.30;1.23;;;17.00;94.70;;;;;;5028628;28;20415;-73
2022/10/15 09:03:11;;;;;;;1.67;1.10;;;17.00;94.80;;;;;;5031084;28;20423;-72
2022/10/15 09:05:51;;;;;;;1.77;1.03;;;17.00;94.90;;;;;;5028202;28;20477;-71
2022/10/15 09:08:46;;;;;;;2.23;1.80;;;17.00;94.90;;;;;;5031387;28;20411;-73
2022/10/15 09:11:35;;;;;;;2.20;1.73;;;17.10;95.10;;;;;;5030965;28;20462;-74
2022/10/15 09:14:04;;;;;;;3.57;1.70;;;17.10;95.00;;;;;;5030153;28;20461;-73
2022/10/15 09:16:35;;;;;;;1.40;1.10;;;17.10;94.90;;;;;;5026846;28;20509;-72
2022/10/15 09:19:04;;;;;;;2.50;1.20;;;17.10;94.80;;;;;;5026334;28;20452;-74
2022/10/15 09:21:31;;;;;;;1.30;1.10;;;17.10;94.50;;;;;;5027366;28;20412;-75
2022/10/15 09:24:01;;;;;;;1.77;1.33;;;17.10;94.60;;;;;;5021839;28;20432;-74
2022/10/15 09:26:29;;;;;;;2.37;1.07;;;17.20;94.50;;;;;;5024337;28;21034;-73
2022/10/15 09:29:05;;;;;;;2.07;1.57;;;17.20;94.60;;;;;;5028264;28;20476;-72
2022/10/15 09:31:45;;;;;;;1.80;1.20;;;17.20;94.60;;;;;;5027781;28;20407;-74
2022/10/15 09:34:20;;;;;;;1.73;1.30;;;17.30;94.80;;;;;;5041665;28;20461;-73
2022/10/15 09:36:55;;;;;;;1.60;1.40;;;17.40;94.50;;;;;;5024997;28;20459;-73
2022/10/15 09:39:58;;;;;;;2.60;1.63;;;17.50;94.50;;;;;;5027563;28;20423;-73
2022/10/15 09:42:29;;;;;;;2.10;1.07;;;17.50;94.30;;;;;;5029882;28;20467;-73
2022/10/15 09:44:59;;;;;;;2.30;1.40;;;17.60;94.10;;;;;;5029426;28;20429;-73
2022/10/15 09:47:31;;;;;;;1.80;1.20;;;17.80;93.80;;;;;;5023995;28;20987;-72
2022/10/15 09:49:56;;;;;;;1.57;1.17;;;17.90;93.40;;;;;;5029934;28;20472;-71
2022/10/15 09:52:56;;;;;;;2.00;1.10;;;18.00;92.90;;;;;;5034104;28;20495;-73
2022/10/15 09:55:49;;;;;;;1.27;1.00;;;18.00;92.10;;;;;;5030523;28;20182;-70
2022/10/15 09:58:26;;;;;;;1.53;1.10;;;17.90;91.50;;;;;;5026849;28;20486;-70
2022/10/15 10:00:59;;;;;;;1.63;0.83;;;18.00;91.90;;;;;;5026822;28;20466;-73
2022/10/15 10:03:28;;;;;;;1.40;0.90;;;18.00;91.20;;;;;;5029718;28;20500;-73
2022/10/15 10:06:08;;;;;;;6.70;1.43;;;18.10;91.30;;;;;;5028829;28;20613;-70
2022/10/15 10:08:45;;;;;;;1.20;0.73;;;18.30;90.80;;;;;;5023087;28;20967;-72
2022/10/15 10:11:11;;;;;;;1.17;1.00;;;18.50;90.80;;;;;;5031877;28;20492;-71
2022/10/15 10:13:55;;;;;;;3.10;1.10;;;18.60;89.90;;;;;;5031013;28;20439;-74
2022/10/15 10:16:21;;;;;;;1.77;0.90;;;18.70;88.90;;;;;;5027943;28;20464;-70
2022/10/15 10:19:13;;;;;;;1.33;0.80;;;18.80;88.40;;;;;;5033284;28;20426;-70
2022/10/15 10:21:41;;;;;;;2.07;0.87;;;19.00;86.90;;;;;;5032200;28;20422;-73
2022/10/15 10:24:29;;;;;;;1.83;1.00;;;19.20;86.00;;;;;;5027658;28;20426;-72
2022/10/15 10:26:56;;;;;;;1.60;0.93;;;19.40;84.30;;;;;;5021721;28;21007;-71
2022/10/15 10:29:23;;;;;;;1.60;0.90;;;19.50;83.40;;;;;;5030020;28;20434;-69
2022/10/15 10:31:51;;;;;;;5.30;1.30;;;19.60;81.50;;;;;;5028635;28;20415;-71
2022/10/15 10:34:27;;;;;;;2.50;1.10;;;19.90;82.50;;;;;;5032965;28;20416;-70
2022/10/15 10:36:54;;;;;;;2.83;1.00;;;19.80;80.20;;;;;;5030533;28;20474;-70
2022/10/15 10:39:27;;;;;;;1.73;0.90;;;19.60;81.50;;;;;;5033056;28;20511;-70
2022/10/15 10:41:57;;;;;;;3.77;1.70;;;19.70;80.90;;;;;;5030303;28;20444;-71
2022/10/15 10:44:31;;;;;;;1.70;1.20;;;20.00;80.80;;;;;;5028440;28;20476;-71
2022/10/15 10:47:18;;;;;;;1.40;1.10;;;20.20;80.00;;;;;;5026269;28;20563;-70
2022/10/15 10:49:55;;;;;;;4.20;1.33;;;20.50;78.30;;;;;;5026372;28;20435;-71
2022/10/15 10:52:25;;;;;;;6.10;1.47;;;20.60;77.80;;;;;;5030374;28;20855;-72
2022/10/15 10:54:54;;;;;;;2.20;0.90;;;20.90;76.70;;;;;;5029551;28;20436;-72
2022/10/15 10:57:36;;;;;;;1.80;1.10;;;20.60;75.10;;;;;;5030169;28;20452;-72
2022/10/15 11:00:03;;;;;;;2.17;1.23;;;20.40;77.10;;;;;;5021003;28;20420;-74
2022/10/15 11:02:30;;;;;;;2.33;1.27;;;20.30;77.10;;;;;;5032377;28;20408;-74
2022/10/15 11:04:56;;;;;;;2.33;1.10;;;20.10;77.30;;;;;;5033805;28;20427;-70
2022/10/15 11:07:34;;;;;;;2.07;1.30;;;20.00;77.10;;;;;;5032843;28;20527;-73
2022/10/15 11:10:34;;;;;;;3.80;1.70;;;19.80;78.10;;;;;;5039153;28;20461;-75
2022/10/15 11:13:19;;;;;;;3.63;1.40;;;19.70;78.40;;;;;;5033048;28;20477;-70
2022/10/15 11:16:09;;;;;;;3.17;1.30;;;19.60;79.00;;;;;;5035021;28;20564;-70
2022/10/15 11:19:04;;;;;;;3.23;1.40;;;19.70;79.20;;;;;;5028605;28;20931;-72
2022/10/15 11:21:41;;;;;;;3.33;1.30;;;19.70;77.80;;;;;;5029569;28;20451;-72
2022/10/15 11:24:17;;;;;;;2.30;1.67;;;19.70;78.10;;;;;;5030879;28;20504;-70
2022/10/15 11:27:10;;;;;;;2.50;1.20;;;19.50;78.00;;;;;;5026558;28;20481;-72
2022/10/15 11:30:02;;;;;;;2.90;1.33;;;19.50;78.90;;;;;;5029595;28;20414;-70
2022/10/15 11:32:52;;;;;;;5.13;1.30;;;19.50;79.00;;;;;;5032020;28;20446;-69
2022/10/15 11:35:37;;;;;;;3.50;1.30;;;19.60;77.30;;;;;;5029260;28;20893;-70
2022/10/15 11:38:22;;;;;;;2.60;1.43;;;19.50;78.00;;;;;;5030650;28;20426;-71
2022/10/15 11:41:10;;;;;;;3.40;1.40;;;19.60;77.70;;;;;;5032450;28;20415;-70
2022/10/15 11:43:48;;;;;;;7.03;1.80;;;19.70;78.00;;;;;;5029680;28;20474;-69
2022/10/15 11:46:41;;;;;;;3.20;1.23;;;19.70;77.80;;;;;;5029793;28;20475;-71
2022/10/15 11:49:38;;;;;;;2.53;1.77;;;19.80;77.10;;;;;;5026653;28;20432;-71
2022/10/15 11:52:34;;;;;;;1.80;1.10;;;19.70;77.00;;;;;;5041331;28;20440;-72
2022/10/15 11:55:12;;;;;;;2.57;1.20;;;19.60;76.40;;;;;;5029754;28;20446;-71
2022/10/15 11:57:40;;;;;;;1.77;1.10;;;19.60;76.10;;;;;;5028353;28;20970;-70
2022/10/15 12:00:34;;;;;;;2.40;1.40;;;19.60;76.40;;;;;;5027626;28;20458;-73
2022/10/15 12:03:10;;;;;;;1.63;1.20;;;19.90;76.10;;;;;;5025658;28;20431;-73
2022/10/15 12:05:47;;;;;;;2.93;1.17;;;20.40;74.30;;;;;;5026414;28;20506;-70
2022/10/15 12:08:13;;;;;;;2.27;1.13;;;20.70;73.20;;;;;;5027130;28;20495;-71
2022/10/15 12:10:38;;;;;;;3.47;1.50;;;20.80;72.10;;;;;;5031479;28;20970;-73
2022/10/15 12:13:40;;;;;;;1.43;1.20;;;20.70;72.90;;;;;;5031281;28;20409;-69
2022/10/15 12:16:21;;;;;;;6.33;1.50;;;20.40;72.40;;;;;;5025080;28;20583;-72
2022/10/15 12:19:10;;;;;;;2.00;1.13;;;20.20;73.00;;;;;;5029904;28;20416;-71
2022/10/15 12:22:05;;;;;;;5.10;1.43;;;20.20;73.50;;;;;;5031821;28;20943;-71
2022/10/15 12:24:37;;;;;;;3.23;1.23;;;20.30;73.00;;;;;;5030619;28;20643;-71
2022/10/15 12:27:18;;;;;;;1.47;1.10;;;20.10;73.90;;;;;;5026636;28;20483;-71
2022/10/15 12:30:04;;;;;;;1.83;1.17;;;20.00;73.70;;;;;;5031087;28;20428;-70
2022/10/15 12:32:46;;;;;;;1.97;1.27;;;19.90;74.30;;;;;;5023811;28;20436;-69
2022/10/15 12:35:14;;;;;;;1.63;1.10;;;19.80;74.30;;;;;;5028469;28;20424;-71
2022/10/15 12:37:42;;;;;;;1.60;1.17;;;19.70;75.20;;;;;;5024044;28;20466;-71
2022/10/15 12:40:26;;;;;;;2.90;1.30;;;19.60;75.80;;;;;;5026262;28;20473;-72
2022/10/15 12:42:56;;;;;;;1.53;0.90;;;19.60;76.10;;;;;;5026394;28;20516;-72
2022/10/15 12:45:44;;;;;;;1.30;1.30;;;19.50;76.20;;;;;;5024390;28;20510;-70
2022/10/15 12:48:35;;;;;;;2.37;1.53;;;19.50;76.50;;;;;;5016499;28;20430;-72
2022/10/15 12:51:23;;;;;;;3.40;1.00;;;19.50;76.80;;;;;;5025934;28;20444;-70
2022/10/15 12:53:50;;;;;;;5.20;1.20;;;19.40;76.70;;;;;;5030065;28;20457;-70
2022/10/15 12:56:16;;;;;;;2.47;1.20;;;19.30;77.30;;;;;;5027684;28;20464;-70
2022/10/15 12:58:47;;;;;;;2.93;1.70;;;19.20;77.80;;;;;;5029313;28;20445;-70
2022/10/15 13:01:12;;;;;;;3.27;1.57;;;19.10;78.60;;;;;;5028388;28;20222;-71
2022/10/15 13:03:43;;;;;;;2.67;1.30;;;19.10;79.00;;;;;;5028614;28;20453;-71
2022/10/15 13:06:21;;;;;;;2.00;1.07;;;19.10;79.60;;;;;;5026913;28;20233;-71
2022/10/15 13:08:58;;;;;;;1.83;1.20;;;19.00;80.00;;;;;;5028888;28;20516;-71